Time;durP1;ratioP1;P1;durP2;ratioP2;P2;SDS_P1;SDS_P2;PMS_P1;PMS_P2;Temp;Humidity;BMP_temperature;BMP_pressure;BME280_temperature;BME280_humidity;BME280_pressure;Samples;Min_cycle;Max_cycle;Signal;HPM_P1;HPM_P2
2023/01/02 00:01:02;;;;;;;4.97;2.70;;;;;;;;;;5020521;28;20446;-83
2023/01/02 00:03:28;;;;;;;4.68;2.42;;;;;;;;;;5029093;28;20021;-82
2023/01/02 00:05:54;;;;;;;6.05;2.83;;;;;;;;;;5040589;28;20056;-82
2023/01/02 00:08:20;;;;;;;6.38;2.50;;;;;;;;;;5024913;28;20026;-82
2023/01/02 00:10:46;;;;;;;3.38;2.25;;;;;;;;;;5020444;28;20029;-83
2023/01/02 00:13:13;;;;;;;4.13;2.17;;;;;;;;;;5027558;28;20022;-82
2023/01/02 00:15:39;;;;;;;4.00;2.05;;;;;;;;;;5040139;28;20333;-82
2023/01/02 00:18:05;;;;;;;4.72;2.38;;;;;;;;;;5040017;28;20452;-83
2023/01/02 00:20:31;;;;;;;4.30;2.03;;;;;;;;;;5040163;28;20029;-82
2023/01/02 00:22:57;;;;;;;6.50;2.33;;;;;;;;;;5039940;28;20075;-83
2023/01/02 00:25:23;;;;;;;5.20;2.30;;;;;;;;;;5026394;28;20038;-83
2023/01/02 00:27:49;;;;;;;5.93;2.35;;;;;;;;;;5027136;28;20029;-82
2023/01/02 00:30:15;;;;;;;3.42;1.83;;;;;;;;;;5039839;28;20025;-82
2023/01/02 00:32:41;;;;;;;2.70;1.80;;;;;;;;;;5039916;28;20736;-82
2023/01/02 00:35:07;;;;;;;4.03;2.10;;;;;;;;;;5039899;28;20029;-83
2023/01/02 00:37:33;;;;;;;2.63;1.90;;;;;;;;;;5039934;28;20464;-82
2023/01/02 00:39:59;;;;;;;4.57;1.95;;;;;;;;;;5039755;28;20030;-82
2023/01/02 00:42:25;;;;;;;3.35;1.92;;;;;;;;;;5039924;28;20072;-82
2023/01/02 00:44:51;;;;;;;4.75;2.03;;;;;;;;;;5039837;28;20476;-82
2023/01/02 00:47:17;;;;;;;3.30;1.83;;;;;;;;;;5039889;28;20026;-82
2023/01/02 00:49:43;;;;;;;4.72;2.83;;;;;;;;;;5026088;28;20048;-82
2023/01/02 00:52:21;;;;;;;6.57;4.50;;;;;;;;;;5038018;28;20021;-82
2023/01/02 00:54:47;;;;;;;7.38;4.88;;;;;;;;;;5039848;28;20508;-82
2023/01/02 00:57:13;;;;;;;11.80;5.55;;;;;;;;;;5039913;28;20026;-82
2023/01/02 00:59:39;;;;;;;13.77;5.50;;;;;;;;;;5027767;28;20064;-83
2023/01/02 01:02:05;;;;;;;8.80;5.10;;;;;;;;;;5040065;28;20033;-82
2023/01/02 01:04:34;;;;;;;13.38;5.30;;;;;;;;;;5038758;28;20158;-82
2023/01/02 01:07:00;;;;;;;10.38;4.72;;;;;;;;;;5036319;28;20033;-82
2023/01/02 01:09:26;;;;;;;10.82;4.95;;;;;;;;;;5036520;28;20034;-83
2023/01/02 01:11:52;;;;;;;11.00;4.63;;;;;;;;;;5036483;28;20025;-83
2023/01/02 01:14:18;;;;;;;6.85;4.25;;;;;;;;;;5036562;28;20035;-83
2023/01/02 01:16:44;;;;;;;10.35;5.30;;;;;;;;;;5036369;28;20384;-83
2023/01/02 01:19:10;;;;;;;8.07;4.75;;;;;;;;;;5036335;28;20472;-83
2023/01/02 01:21:36;;;;;;;7.00;4.53;;;;;;;;;;5036288;28;20033;-83
2023/01/02 01:24:02;;;;;;;7.80;4.35;;;;;;;;;;5036352;28;20032;-83
2023/01/02 01:26:28;;;;;;;8.00;4.30;;;;;;;;;;5033981;28;20021;-83
2023/01/02 01:28:55;;;;;;;7.10;3.85;;;;;;;;;;5016543;28;20034;-82
2023/01/02 01:31:22;;;;;;;6.13;3.83;;;;;;;;;;5033534;28;20100;-83
2023/01/02 01:33:48;;;;;;;6.18;3.58;;;;;;;;;;5036022;28;20025;-83
2023/01/02 01:36:15;;;;;;;7.22;4.18;;;;;;;;;;5018588;28;20030;-83
2023/01/02 01:38:42;;;;;;;7.47;4.22;;;;;;;;;;5036243;28;20026;-83
2023/01/02 01:41:08;;;;;;;7.70;4.47;;;;;;;;;;5036219;28;20056;-83
2023/01/02 01:43:40;;;;;;;4.85;4.07;;;;;;;;;;5035934;28;20026;-82
2023/01/02 01:46:08;;;;;;;8.52;4.07;;;;;;;;;;5035880;28;20669;-83
2023/01/02 01:48:35;;;;;;;7.13;4.60;;;;;;;;;;5017475;28;20026;-83
2023/01/02 01:51:01;;;;;;;10.02;4.85;;;;;;;;;;5027528;28;20038;-83
2023/01/02 01:53:27;;;;;;;5.63;4.60;;;;;;;;;;5035556;28;20029;-83
2023/01/02 01:55:55;;;;;;;7.35;4.95;;;;;;;;;;5035600;28;20021;-83
2023/01/02 01:58:28;;;;;;;9.38;4.95;;;;;;;;;;5035657;28;20029;-83
2023/01/02 02:00:55;;;;;;;10.93;5.70;;;;;;;;;;5035578;28;20045;-82
2023/01/02 02:03:23;;;;;;;12.73;6.07;;;;;;;;;;5017815;28;20566;-83
2023/01/02 02:05:49;;;;;;;10.73;6.05;;;;;;;;;;5035688;28;20029;-83
2023/01/02 02:08:18;;;;;;;9.68;5.78;;;;;;;;;;5035323;28;20018;-83
2023/01/02 02:10:45;;;;;;;13.68;6.13;;;;;;;;;;5035296;28;20076;-83
2023/01/02 02:13:11;;;;;;;12.60;6.25;;;;;;;;;;5036035;28;20017;-83
2023/01/02 02:15:44;;;;;;;16.55;7.10;;;;;;;;;;5036897;28;20060;-83
2023/01/02 02:18:33;;;;;;;15.68;8.25;;;;;;;;;;5036162;28;20480;-82
2023/01/02 02:21:02;;;;;;;17.65;8.77;;;;;;;;;;5025275;28;20041;-82
2023/01/02 02:23:38;;;;;;;20.15;9.25;;;;;;;;;;5036176;28;20021;-82
2023/01/02 02:26:13;;;;;;;19.40;9.68;;;;;;;;;;5016477;28;20036;-83
2023/01/02 02:28:49;;;;;;;20.85;10.43;;;;;;;;;;5029431;28;20033;-83
2023/01/02 02:31:23;;;;;;;18.08;9.38;;;;;;;;;;5035767;28;20065;-83
2023/01/02 02:33:57;;;;;;;19.85;9.82;;;;;;;;;;5035290;28;20037;-83
2023/01/02 02:36:32;;;;;;;21.15;10.35;;;;;;;;;;5035426;28;20064;-83
2023/01/02 02:38:58;;;;;;;15.25;10.00;;;;;;;;;;5035092;28;20549;-83
2023/01/02 02:41:34;;;;;;;16.58;9.68;;;;;;;;;;5042795;28;20065;-83
2023/01/02 02:44:00;;;;;;;17.80;10.23;;;;;;;;;;5044272;28;20033;-83
2023/01/02 02:46:37;;;;;;;17.83;10.18;;;;;;;;;;5040106;28;20021;-83
2023/01/02 02:49:24;;;;;;;19.10;10.80;;;;;;;;;;5047773;28;20052;-83
2023/01/02 02:51:54;;;;;;;16.23;10.40;;;;;;;;;;5024628;28;20030;-83
2023/01/02 02:54:30;;;;;;;23.38;11.40;;;;;;;;;;5036138;28;20053;-83
2023/01/02 02:56:57;;;;;;;24.65;12.25;;;;;;;;;;5035379;28;20033;-83
2023/01/02 02:59:23;;;;;;;19.25;11.15;;;;;;;;;;5044567;28;20029;-83
2023/01/02 03:01:49;;;;;;;22.70;11.25;;;;;;;;;;5036654;28;20116;-83
2023/01/02 03:04:19;;;;;;;18.65;11.38;;;;;;;;;;5036719;28;20018;-83
2023/01/02 03:06:45;;;;;;;21.80;11.98;;;;;;;;;;5036063;28;20025;-83
2023/01/02 03:09:20;;;;;;;22.98;12.05;;;;;;;;;;5025119;28;20033;-83
2023/01/02 03:12:02;;;;;;;22.23;11.88;;;;;;;;;;5042042;28;20029;-83
2023/01/02 03:14:48;;;;;;;21.02;12.48;;;;;;;;;;5030556;28;20026;-83
2023/01/02 03:17:27;;;;;;;26.92;12.73;;;;;;;;;;5028446;28;20025;-84
2023/01/02 03:19:58;;;;;;;18.73;11.27;;;;;;;;;;5026865;28;20030;-83
2023/01/02 03:22:31;;;;;;;21.42;12.07;;;;;;;;;;5030648;28;20037;-83
2023/01/02 03:24:58;;;;;;;22.35;12.27;;;;;;;;;;5033205;28;20550;-82
2023/01/02 03:27:26;;;;;;;21.42;11.60;;;;;;;;;;5002280;28;20432;-83
2023/01/02 03:29:55;;;;;;;18.98;11.07;;;;;;;;;;5024604;28;20788;-83
2023/01/02 03:32:24;;;;;;;20.80;12.13;;;;;;;;;;5027933;28;20030;-83
2023/01/02 03:34:51;;;;;;;19.08;10.40;;;;;;;;;;5034639;28;20021;-83
2023/01/02 03:37:20;;;;;;;16.08;9.88;;;;;;;;;;5036821;28;20100;-83
2023/01/02 03:39:51;;;;;;;21.15;11.38;;;;;;;;;;5036674;28;20033;-83
2023/01/02 03:42:22;;;;;;;20.35;11.63;;;;;;;;;;5036138;28;20044;-83
2023/01/02 03:45:06;;;;;;;15.80;9.43;;;;;;;;;;5035689;28;20108;-83
2023/01/02 03:47:42;;;;;;;16.70;9.57;;;;;;;;;;5036059;28;20077;-83
2023/01/02 03:50:20;;;;;;;14.73;9.40;;;;;;;;;;5032960;28;20120;-83
2023/01/02 03:52:47;;;;;;;16.65;9.10;;;;;;;;;;5026283;28;20071;-83
2023/01/02 03:55:13;;;;;;;14.80;9.30;;;;;;;;;;5035343;28;20066;-83
2023/01/02 03:57:45;;;;;;;16.05;9.98;;;;;;;;;;5023906;28;20026;-83
2023/01/02 04:00:14;;;;;;;18.33;9.38;;;;;;;;;;5020029;28;20054;-83
2023/01/02 04:02:49;;;;;;;15.15;9.13;;;;;;;;;;5016803;28;20033;-83
2023/01/02 04:05:15;;;;;;;14.52;9.20;;;;;;;;;;5034821;28;20030;-83
2023/01/02 04:07:41;;;;;;;14.38;9.20;;;;;;;;;;5031594;28;20032;-83
2023/01/02 04:10:08;;;;;;;16.70;10.02;;;;;;;;;;5028455;28;20039;-82
2023/01/02 04:12:37;;;;;;;18.27;9.43;;;;;;;;;;5034473;28;20071;-83
2023/01/02 04:15:05;;;;;;;15.20;10.10;;;;;;;;;;5034093;28;20066;-83
2023/01/02 04:17:34;;;;;;;17.38;11.27;;;;;;;;;;5034192;28;20432;-83
2023/01/02 04:20:07;;;;;;;14.82;9.52;;;;;;;;;;5016291;28;20039;-83
2023/01/02 04:22:35;;;;;;;12.93;9.15;;;;;;;;;;5000696;28;20088;-84
2023/01/02 04:25:12;;;;;;;17.55;10.35;;;;;;;;;;5028495;28;20036;-83
2023/01/02 04:27:42;;;;;;;13.40;8.90;;;;;;;;;;5032448;28;20041;-83
2023/01/02 04:30:08;;;;;;;18.02;9.40;;;;;;;;;;5033317;28;20025;-83
2023/01/02 04:32:39;;;;;;;14.23;8.90;;;;;;;;;;5029320;28;20030;-83
2023/01/02 04:35:07;;;;;;;11.77;7.88;;;;;;;;;;5037458;28;20017;-83
2023/01/02 04:37:34;;;;;;;12.40;7.65;;;;;;;;;;5048141;28;20022;-83
2023/01/02 04:40:03;;;;;;;11.00;7.13;;;;;;;;;;5018531;28;20030;-83
2023/01/02 04:42:30;;;;;;;10.35;7.20;;;;;;;;;;5044139;28;20496;-83
2023/01/02 04:44:56;;;;;;;11.82;6.63;;;;;;;;;;5045007;28;20049;-83
2023/01/02 04:47:22;;;;;;;11.45;6.95;;;;;;;;;;5029654;28;20030;-83
2023/01/02 04:49:48;;;;;;;10.88;6.60;;;;;;;;;;5044179;28;20041;-83
2023/01/02 04:52:13;;;;;;;10.43;7.30;;;;;;;;;;5037153;28;20030;-83
2023/01/02 04:54:39;;;;;;;10.00;7.35;;;;;;;;;;5024347;28;20105;-83
2023/01/02 04:57:05;;;;;;;10.38;7.43;;;;;;;;;;5037523;28;20028;-83
2023/01/02 04:59:31;;;;;;;11.32;7.70;;;;;;;;;;5008383;28;20088;-83
2023/01/02 05:01:57;;;;;;;10.43;7.30;;;;;;;;;;5033175;28;20025;-83
2023/01/02 05:04:25;;;;;;;10.48;7.85;;;;;;;;;;5042458;28;20049;-83
2023/01/02 05:06:51;;;;;;;12.10;7.50;;;;;;;;;;5036032;28;20086;-83
2023/01/02 05:09:17;;;;;;;13.45;8.05;;;;;;;;;;5035276;28;20026;-83
2023/01/02 05:11:43;;;;;;;11.95;7.63;;;;;;;;;;5041486;28;20108;-83
2023/01/02 05:14:09;;;;;;;11.52;8.15;;;;;;;;;;5041104;28;20025;-83
2023/01/02 05:16:35;;;;;;;25.77;8.13;;;;;;;;;;5040875;28;20032;-83
2023/01/02 05:19:01;;;;;;;12.77;7.65;;;;;;;;;;5026817;28;20400;-83
2023/01/02 05:24:12;;;;;;;11.88;8.13;;;;;;;;;;5021836;28;20500;-83
2023/01/02 05:26:38;;;;;;;11.05;7.18;;;;;;;;;;5030923;28;20033;-83
2023/01/02 05:29:04;;;;;;;11.60;7.72;;;;;;;;;;5032757;28;20042;-83
2023/01/02 05:31:30;;;;;;;13.75;8.73;;;;;;;;;;5028435;28;20037;-83
2023/01/02 05:33:57;;;;;;;15.55;8.25;;;;;;;;;;5033337;28;20100;-83
2023/01/02 05:36:24;;;;;;;24.63;10.02;;;;;;;;;;5029834;28;20033;-83
2023/01/02 05:38:51;;;;;;;16.45;7.85;;;;;;;;;;5019243;28;20029;-83
2023/01/02 05:41:17;;;;;;;14.80;6.55;;;;;;;;;;5018539;28;20028;-83
2023/01/02 05:43:44;;;;;;;10.00;4.45;;;;;;;;;;5018137;28;20022;-83
2023/01/02 05:46:11;;;;;;;7.88;2.53;;;;;;;;;;5026588;28;20104;-83
2023/01/02 05:48:37;;;;;;;3.63;1.40;;;;;;;;;;5034186;28;20037;-83
2023/01/02 05:51:04;;;;;;;3.30;1.23;;;;;;;;;;5017653;28;20034;-82
2023/01/02 05:53:30;;;;;;;7.35;1.30;;;;;;;;;;5037367;28;20028;-82
2023/01/02 05:56:03;;;;;;;2.88;0.80;;;;;;;;;;5036758;28;20049;-83
2023/01/02 05:58:30;;;;;;;3.08;1.30;;;;;;;;;;5018738;28;20506;-83
2023/01/02 06:01:02;;;;;;;0.57;0.47;;;;;;;;;;5036755;28;20480;-82
2023/01/02 06:03:30;;;;;;;4.50;0.60;;;;;;;;;;5036113;28;20488;-83
2023/01/02 06:05:56;;;;;;;0.82;0.55;;;;;;;;;;5036191;28;20037;-83
2023/01/02 06:08:22;;;;;;;1.42;0.25;;;;;;;;;;5035898;28;20029;-83
2023/01/02 06:10:49;;;;;;;1.90;0.40;;;;;;;;;;5035192;28;20083;-83
2023/01/02 06:13:15;;;;;;;1.20;0.30;;;;;;;;;;5035522;28;20095;-83
2023/01/02 06:15:41;;;;;;;1.92;0.30;;;;;;;;;;5035483;28;20025;-82
2023/01/02 06:18:39;;;;;;;1.15;0.47;;;;;;;;;;5035392;28;20629;-82
2023/01/02 06:21:07;;;;;;;0.30;0.30;;;;;;;;;;5035332;28;20033;-83
2023/01/02 06:23:33;;;;;;;0.32;0.30;;;;;;;;;;5035949;28;20030;-82
2023/01/02 06:26:06;;;;;;;2.03;0.38;;;;;;;;;;5020801;28;20550;-82
2023/01/02 06:28:33;;;;;;;3.63;0.50;;;;;;;;;;5029109;28;20082;-83
2023/01/02 06:31:02;;;;;;;0.45;0.30;;;;;;;;;;5046914;28;20072;-83
2023/01/02 06:33:29;;;;;;;1.63;0.60;;;;;;;;;;5040025;28;20392;-83
2023/01/02 06:35:58;;;;;;;4.57;0.45;;;;;;;;;;5044042;28;20017;-83
2023/01/02 06:38:24;;;;;;;2.47;0.77;;;;;;;;;;5038181;28;20022;-83
2023/01/02 06:40:57;;;;;;;1.42;0.60;;;;;;;;;;5044864;28;20093;-83
2023/01/02 06:43:24;;;;;;;2.50;0.47;;;;;;;;;;5043175;28;20052;-83
2023/01/02 06:45:50;;;;;;;3.15;0.98;;;;;;;;;;5037259;28;20483;-83
2023/01/02 06:48:16;;;;;;;3.10;0.50;;;;;;;;;;5044690;28;20025;-83
2023/01/02 06:50:42;;;;;;;2.75;0.60;;;;;;;;;;5040438;28;20365;-83
2023/01/02 06:53:08;;;;;;;2.70;0.90;;;;;;;;;;5034759;28;20041;-83
2023/01/02 06:55:34;;;;;;;3.75;0.70;;;;;;;;;;5031173;28;20022;-83
2023/01/02 06:58:00;;;;;;;1.98;0.40;;;;;;;;;;5039176;28;20413;-83
2023/01/02 07:00:26;;;;;;;3.15;0.63;;;;;;;;;;5034192;28;20057;-83
2023/01/02 07:02:52;;;;;;;2.22;0.90;;;;;;;;;;5024906;28;20088;-83
2023/01/02 07:05:18;;;;;;;3.10;0.98;;;;;;;;;;5023269;28;20079;-82
2023/01/02 07:07:44;;;;;;;4.43;0.95;;;;;;;;;;5006915;28;20032;-82
2023/01/02 07:10:10;;;;;;;3.60;1.80;;;;;;;;;;5038475;28;20461;-82
2023/01/02 07:12:37;;;;;;;5.53;2.22;;;;;;;;;;5019593;28;20032;-82
2023/01/02 07:15:04;;;;;;;4.15;1.50;;;;;;;;;;5018570;28;20420;-82
2023/01/02 07:17:30;;;;;;;5.68;1.30;;;;;;;;;;5028216;28;20029;-82
2023/01/02 07:19:56;;;;;;;2.85;0.90;;;;;;;;;;5038554;28;20032;-83
2023/01/02 07:22:22;;;;;;;7.07;1.20;;;;;;;;;;5030576;28;20030;-82
2023/01/02 07:24:48;;;;;;;9.90;1.80;;;;;;;;;;5032248;28;20026;-82
2023/01/02 07:27:14;;;;;;;5.82;1.38;;;;;;;;;;5020087;28;20104;-82
2023/01/02 07:29:40;;;;;;;5.72;1.50;;;;;;;;;;5036339;28;20120;-82
2023/01/02 07:32:06;;;;;;;3.25;1.25;;;;;;;;;;5035742;28;20033;-82
2023/01/02 07:34:32;;;;;;;5.80;1.60;;;;;;;;;;5035313;28;20026;-82
2023/01/02 07:36:58;;;;;;;4.40;1.55;;;;;;;;;;5035128;28;20415;-82
2023/01/02 07:39:24;;;;;;;8.70;1.92;;;;;;;;;;5036062;28;20108;-82
2023/01/02 07:41:50;;;;;;;8.20;1.90;;;;;;;;;;5033914;28;20096;-82
2023/01/02 07:44:16;;;;;;;6.13;2.30;;;;;;;;;;5014624;28;20188;-82
2023/01/02 07:46:43;;;;;;;5.43;2.13;;;;;;;;;;5014986;28;20026;-82
2023/01/02 07:49:12;;;;;;;10.32;2.30;;;;;;;;;;5023790;28;20057;-82
2023/01/02 07:51:38;;;;;;;8.63;2.35;;;;;;;;;;5025210;28;20397;-82
2023/01/02 07:54:04;;;;;;;8.02;2.60;;;;;;;;;;5035416;28;20469;-82
2023/01/02 07:56:30;;;;;;;10.07;2.83;;;;;;;;;;5023366;28;20033;-82
2023/01/02 07:58:56;;;;;;;8.05;2.53;;;;;;;;;;5017519;28;20034;-82
2023/01/02 08:01:22;;;;;;;7.20;2.30;;;;;;;;;;5021447;28;20536;-82
2023/01/02 08:03:48;;;;;;;7.45;2.10;;;;;;;;;;5021784;28;20727;-82
2023/01/02 08:06:15;;;;;;;7.63;2.17;;;;;;;;;;5027315;28;20026;-83
2023/01/02 08:08:41;;;;;;;9.23;1.95;;;;;;;;;;5033063;28;20365;-82
2023/01/02 08:11:08;;;;;;;7.50;1.70;;;;;;;;;;5027287;28;20034;-82
2023/01/02 08:13:35;;;;;;;6.20;1.70;;;;;;;;;;5030089;28;20025;-82
2023/01/02 08:16:07;;;;;;;4.55;1.20;;;;;;;;;;5040515;28;20104;-82
2023/01/02 08:18:33;;;;;;;4.82;1.10;;;;;;;;;;5031452;28;20026;-83
2023/01/02 08:21:00;;;;;;;6.72;1.02;;;;;;;;;;5041733;28;20102;-83
2023/01/02 08:23:26;;;;;;;7.65;1.10;;;;;;;;;;5049460;28;20510;-82
2023/01/02 08:25:51;;;;;;;3.08;1.05;;;;;;;;;;5040365;28;20021;-82
2023/01/02 08:28:18;;;;;;;4.30;1.00;;;;;;;;;;5042304;28;20218;-82
2023/01/02 08:30:43;;;;;;;4.32;0.90;;;;;;;;;;5044677;28;20034;-82
2023/01/02 08:33:09;;;;;;;4.30;1.00;;;;;;;;;;5036890;28;20055;-82
2023/01/02 08:35:35;;;;;;;6.13;1.13;;;;;;;;;;5047639;28;20028;-82
2023/01/02 08:38:01;;;;;;;4.85;0.90;;;;;;;;;;5039505;28;20021;-82
2023/01/02 08:40:27;;;;;;;6.85;1.40;;;;;;;;;;5047433;28;20029;-82
2023/01/02 08:42:53;;;;;;;1.88;1.10;;;;;;;;;;5043149;28;20025;-83
2023/01/02 08:45:19;;;;;;;3.67;1.20;;;;;;;;;;5028402;28;20096;-82
2023/01/02 08:47:45;;;;;;;7.35;1.90;;;;;;;;;;5040848;28;20048;-82
2023/01/02 08:50:11;;;;;;;8.43;1.88;;;;;;;;;;5042740;28;20482;-82
2023/01/02 08:52:37;;;;;;;5.03;1.42;;;;;;;;;;5034271;28;20480;-82
2023/01/02 08:55:04;;;;;;;5.85;1.55;;;;;;;;;;5040877;28;20029;-82
2023/01/02 08:57:31;;;;;;;6.40;2.13;;;;;;;;;;5037788;28;20021;-82
2023/01/02 08:59:57;;;;;;;6.85;2.00;;;;;;;;;;5034327;28;20017;-82
2023/01/02 09:02:23;;;;;;;3.33;1.40;;;;;;;;;;5042182;28;20064;-82
2023/01/02 09:04:49;;;;;;;4.78;1.20;;;;;;;;;;5046356;28;20567;-84
2023/01/02 09:07:15;;;;;;;2.92;1.10;;;;;;;;;;5018457;28;20136;-83
2023/01/02 09:09:42;;;;;;;3.95;1.05;;;;;;;;;;5040351;28;20536;-83
2023/01/02 09:12:08;;;;;;;4.13;0.88;;;;;;;;;;5042982;28;20542;-83
2023/01/02 09:14:34;;;;;;;3.30;1.50;;;;;;;;;;5032456;28;20026;-82
2023/01/02 09:17:00;;;;;;;2.88;0.90;;;;;;;;;;5022371;28;20366;-82
2023/01/02 09:19:26;;;;;;;5.35;0.80;;;;;;;;;;5030164;28;20026;-83
2023/01/02 09:21:52;;;;;;;4.15;0.80;;;;;;;;;;5040383;28;20022;-82
2023/01/02 09:24:18;;;;;;;2.30;0.80;;;;;;;;;;5027070;28;20021;-83
2023/01/02 09:26:44;;;;;;;2.70;0.70;;;;;;;;;;5022565;28;20037;-82
2023/01/02 09:29:11;;;;;;;3.65;0.70;;;;;;;;;;5014721;28;20030;-83
2023/01/02 09:31:37;;;;;;;2.30;0.40;;;;;;;;;;5040261;28;20033;-82
2023/01/02 09:34:03;;;;;;;5.30;1.50;;;;;;;;;;5039346;28;20025;-82
2023/01/02 09:36:30;;;;;;;1.95;0.43;;;;;;;;;;5028527;28;20029;-83
2023/01/02 09:38:57;;;;;;;4.15;0.85;;;;;;;;;;5038065;28;20511;-82
2023/01/02 09:41:32;;;;;;;0.75;0.43;;;;;;;;;;5033259;28;20026;-82
2023/01/02 09:44:10;;;;;;;1.55;0.85;;;;;;;;;;5038302;28;20459;-83
2023/01/02 09:46:45;;;;;;;2.63;0.75;;;;;;;;;;5041677;28;20025;-82
2023/01/02 09:49:12;;;;;;;3.50;0.52;;;;;;;;;;5015980;28;20041;-84
2023/01/02 09:51:38;;;;;;;2.70;0.52;;;;;;;;;;5022096;28;20030;-83
2023/01/02 09:54:06;;;;;;;3.65;0.60;;;;;;;;;;5033309;28;20108;-84
2023/01/02 09:56:36;;;;;;;3.75;0.85;;;;;;;;;;5036936;28;20053;-82
2023/01/02 09:59:09;;;;;;;3.28;0.95;;;;;;;;;;5035238;28;20072;-82
2023/01/02 10:02:10;;;;;;;7.00;0.73;;;;;;;;;;5036164;28;20049;-82
2023/01/02 10:04:55;;;;;;;2.78;0.90;;;;;;;;;;4964196;29;20459;-82
2023/01/02 10:07:24;;;;;;;1.92;0.80;;;;;;;;;;5014854;28;20037;-83
2023/01/02 10:09:57;;;;;;;3.25;1.30;;;;;;;;;;5017750;28;20061;-84
2023/01/02 10:12:33;;;;;;;2.80;0.90;;;;;;;;;;5008068;28;20097;-84
2023/01/02 10:15:02;;;;;;;4.78;1.20;;;;;;;;;;5022001;28;20034;-83
2023/01/02 10:17:30;;;;;;;3.67;0.90;;;;;;;;;;5019753;28;20500;-83
2023/01/02 10:19:59;;;;;;;5.60;0.90;;;;;;;;;;5020819;28;20029;-84
2023/01/02 10:22:30;;;;;;;3.47;1.10;;;;;;;;;;5019485;28;20479;-84
2023/01/02 10:25:06;;;;;;;7.90;1.52;;;;;;;;;;5000355;28;20026;-84
2023/01/02 10:27:45;;;;;;;4.72;1.35;;;;;;;;;;4999930;28;20029;-84
2023/01/02 10:30:19;;;;;;;5.55;0.93;;;;;;;;;;5015810;28;20164;-83
2023/01/02 10:33:05;;;;;;;3.67;0.65;;;;;;;;;;5036584;28;20025;-83
2023/01/02 10:35:37;;;;;;;3.90;0.60;;;;;;;;;;5030947;28;20068;-84
2023/01/02 10:38:03;;;;;;;3.60;0.55;;;;;;;;;;5014066;28;20026;-84
2023/01/02 10:40:31;;;;;;;3.47;0.60;;;;;;;;;;5017579;28;20040;-83
2023/01/02 10:42:58;;;;;;;5.97;0.70;;;;;;;;;;5010416;28;20028;-83
2023/01/02 10:45:30;;;;;;;5.95;1.52;;;;;;;;;;5015351;28;20412;-84
2023/01/02 10:47:56;;;;;;;9.23;1.02;;;;;;;;;;5010365;28;20030;-84
2023/01/02 10:50:25;;;;;;;4.63;0.73;;;;;;;;;;5017198;28;20079;-85
2023/01/02 10:53:05;;;;;;;7.53;1.23;;;;;;;;;;5024102;28;20116;-85
2023/01/02 10:55:31;;;;;;;;;;;;;;;;;;5017959;28;20033;-81
2023/01/02 10:58:01;;;;;;;5.10;0.70;;;;;;;;;;5037429;28;19916;-81
2023/01/02 11:00:29;;;;;;;5.10;1.00;;;;;;;;;;5038868;28;20052;-81
2023/01/02 11:02:59;;;;;;;7.00;1.00;;;;;;;;;;5034272;28;20086;-81
2023/01/02 11:05:29;;;;;;;8.15;1.17;;;;;;;;;;5033249;28;20109;-81
2023/01/02 11:07:55;;;;;;;4.22;0.70;;;;;;;;;;5030948;28;20298;-81
2023/01/02 11:10:32;;;;;;;5.70;0.90;;;;;;;;;;5033504;28;20045;-81
2023/01/02 11:13:02;;;;;;;8.02;1.23;;;;;;;;;;5033777;28;20041;-81
2023/01/02 11:15:29;;;;;;;4.27;0.97;;;;;;;;;;5033128;28;20025;-81
2023/01/02 11:17:56;;;;;;;4.75;0.63;;;;;;;;;;5044157;28;20037;-81
2023/01/02 11:20:33;;;;;;;4.20;0.80;;;;;;;;;;5038644;28;20030;-81
2023/01/02 11:23:01;;;;;;;8.05;1.10;;;;;;;;;;5023439;28;20038;-81
2023/01/02 11:25:28;;;;;;;6.70;1.60;;;;;;;;;;5016535;28;20036;-81
2023/01/02 11:28:01;;;;;;;7.40;0.80;;;;;;;;;;5031747;28;20029;-81
2023/01/02 11:30:29;;;;;;;9.38;0.98;;;;;;;;;;5046295;28;20052;-81
2023/01/02 11:33:04;;;;;;;6.07;0.80;;;;;;;;;;5034267;28;20455;-81
2023/01/02 11:35:38;;;;;;;5.63;0.63;;;;;;;;;;5031212;28;20022;-81
2023/01/02 11:38:04;;;;;;;8.25;1.00;;;;;;;;;;5018024;28;20021;-81
2023/01/02 11:40:31;;;;;;;6.13;0.98;;;;;;;;;;5010589;28;20033;-82
2023/01/02 11:45:45;;;;;;;8.38;1.63;;;;;;;;;;5034454;28;20060;-82
2023/01/02 11:48:17;;;;;;;7.97;0.90;;;;;;;;;;5028063;28;20033;-82
2023/01/02 11:50:43;;;;;;;5.22;0.93;;;;;;;;;;5028131;28;20030;-82
2023/01/02 11:53:13;;;;;;;6.25;1.13;;;;;;;;;;5002111;28;20084;-82
2023/01/02 11:55:58;;;;;;;9.98;1.10;;;;;;;;;;5036196;28;20130;-82
2023/01/02 11:58:34;;;;;;;8.57;1.05;;;;;;;;;;5028029;28;20045;-82
2023/01/02 12:01:12;;;;;;;8.65;1.10;;;;;;;;;;5030977;28;20041;-82
2023/01/02 12:03:39;;;;;;;11.25;1.10;;;;;;;;;;5029266;28;20040;-82
2023/01/02 12:06:05;;;;;;;10.80;1.38;;;;;;;;;;5052742;28;20038;-82
2023/01/02 12:08:36;;;;;;;10.50;1.20;;;;;;;;;;5041863;28;20061;-82
2023/01/02 12:11:05;;;;;;;8.00;1.20;;;;;;;;;;5038736;28;20088;-82
2023/01/02 12:13:40;;;;;;;10.35;1.40;;;;;;;;;;5014201;28;20065;-82
2023/01/02 12:16:12;;;;;;;11.00;1.77;;;;;;;;;;5037292;28;20089;-82
2023/01/02 12:18:47;;;;;;;10.68;1.80;;;;;;;;;;5030905;28;20033;-82
2023/01/02 12:21:16;;;;;;;13.10;2.63;;;;;;;;;;5030693;28;20030;-82
2023/01/02 12:24:07;;;;;;;14.80;1.50;;;;;;;;;;5033776;28;20022;-82
2023/01/02 12:26:42;;;;;;;12.43;2.45;;;;;;;;;;5014096;28;20033;-82
2023/01/02 12:29:22;;;;;;;13.48;2.00;;;;;;;;;;5024748;28;20156;-82
2023/01/02 12:32:17;;;;;;;10.93;1.80;;;;;;;;;;5027880;28;20033;-82
2023/01/02 12:34:52;;;;;;;12.68;1.83;;;;;;;;;;5002142;28;20436;-82
2023/01/02 12:37:35;;;;;;;16.42;2.35;;;;;;;;;;5024550;28;20029;-82
2023/01/02 12:40:25;;;;;;;17.83;3.38;;;;;;;;;;5023746;28;20109;-82
2023/01/02 12:42:56;;;;;;;10.95;1.95;;;;;;;;;;5026880;28;20136;-82
2023/01/02 12:45:29;;;;;;;12.30;1.75;;;;;;;;;;5026911;28;20029;-82
2023/01/02 12:48:13;;;;;;;13.00;1.45;;;;;;;;;;5020271;28;20431;-82
2023/01/02 12:50:42;;;;;;;10.77;2.85;;;;;;;;;;5021894;28;20048;-81
2023/01/02 12:53:14;;;;;;;9.98;1.60;;;;;;;;;;5025784;28;20033;-81
2023/01/02 12:55:49;;;;;;;8.32;1.63;;;;;;;;;;5027232;28;20037;-81
2023/01/02 12:58:15;;;;;;;14.70;1.80;;;;;;;;;;5026586;28;20022;-81
2023/01/02 13:00:57;;;;;;;11.73;2.75;;;;;;;;;;5012647;28;20081;-81
2023/01/02 13:03:26;;;;;;;10.95;1.73;;;;;;;;;;5001973;28;20023;-81
2023/01/02 13:05:53;;;;;;;11.73;2.30;;;;;;;;;;5002824;28;20031;-81
2023/01/02 13:08:25;;;;;;;15.60;1.83;;;;;;;;;;4999142;28;20108;-81
2023/01/02 13:10:51;;;;;;;7.85;1.92;;;;;;;;;;5015009;28;20072;-81
2023/01/02 13:13:17;;;;;;;11.07;2.00;;;;;;;;;;5015587;28;20052;-81
2023/01/02 13:15:46;;;;;;;12.35;2.13;;;;;;;;;;5013532;28;20029;-80
2023/01/02 13:18:25;;;;;;;9.55;1.75;;;;;;;;;;5017652;28;20108;-80
2023/01/02 13:20:54;;;;;;;11.15;2.10;;;;;;;;;;5017447;28;20056;-81
2023/01/02 13:23:26;;;;;;;11.00;2.00;;;;;;;;;;5014412;28;20030;-81
2023/01/02 13:25:53;;;;;;;13.70;1.80;;;;;;;;;;5015875;28;20041;-81
2023/01/02 13:28:20;;;;;;;10.35;1.98;;;;;;;;;;5011982;28;20030;-81
2023/01/02 13:30:46;;;;;;;11.18;3.42;;;;;;;;;;5012611;28;20492;-81
2023/01/02 13:33:31;;;;;;;11.07;3.03;;;;;;;;;;5007675;28;20026;-81
2023/01/02 13:35:59;;;;;;;11.88;2.75;;;;;;;;;;5004407;28;20307;-81
2023/01/02 13:38:27;;;;;;;8.77;2.50;;;;;;;;;;5011498;28;20091;-81
2023/01/02 13:40:53;;;;;;;11.25;2.50;;;;;;;;;;4998611;28;20097;-81
2023/01/02 13:43:21;;;;;;;14.57;3.10;;;;;;;;;;5012591;28;20721;-81
2023/01/02 13:45:50;;;;;;;14.63;3.22;;;;;;;;;;5010983;28;20033;-81
2023/01/02 13:48:22;;;;;;;14.20;2.63;;;;;;;;;;5012258;28;20033;-81
2023/01/02 13:50:57;;;;;;;9.50;2.15;;;;;;;;;;5011855;28;20555;-80
2023/01/02 13:53:34;;;;;;;12.75;2.22;;;;;;;;;;5012302;28;20115;-80
2023/01/02 13:56:00;;;;;;;8.90;1.92;;;;;;;;;;5003331;28;20029;-79
2023/01/02 13:58:41;;;;;;;8.35;2.00;;;;;;;;;;5013808;28;20030;-80
2023/01/02 14:01:22;;;;;;;8.38;2.00;;;;;;;;;;5034454;28;20366;-80
2023/01/02 14:03:49;;;;;;;14.07;2.20;;;;;;;;;;5023070;28;20028;-80
2023/01/02 14:06:33;;;;;;;11.77;2.20;;;;;;;;;;5024171;28;20490;-80
2023/01/02 14:09:19;;;;;;;12.70;3.08;;;;;;;;;;5032042;28;20033;-80
2023/01/02 14:11:47;;;;;;;7.57;2.65;;;;;;;;;;5027022;28;20029;-80
2023/01/02 14:14:15;;;;;;;8.70;2.38;;;;;;;;;;5032037;28;20025;-80
2023/01/02 14:16:48;;;;;;;10.55;2.55;;;;;;;;;;5032197;28;20361;-80
2023/01/02 14:19:15;;;;;;;6.30;2.22;;;;;;;;;;5030701;28;20076;-80
2023/01/02 14:22:07;;;;;;;6.20;2.10;;;;;;;;;;5022787;28;20381;-80
2023/01/02 14:24:33;;;;;;;10.68;1.95;;;;;;;;;;5032493;28;20033;-80
2023/01/02 14:27:16;;;;;;;10.38;2.90;;;;;;;;;;5041637;28;20035;-80
2023/01/02 14:29:42;;;;;;;11.00;2.53;;;;;;;;;;5022279;28;20103;-80
2023/01/02 14:32:16;;;;;;;10.10;1.83;;;;;;;;;;5031061;28;20072;-80
2023/01/02 14:34:44;;;;;;;11.45;2.50;;;;;;;;;;5031574;28;20057;-80
2023/01/02 14:37:10;;;;;;;6.63;2.28;;;;;;;;;;5027199;28;20064;-80
2023/01/02 14:39:37;;;;;;;9.38;2.40;;;;;;;;;;5027784;28;20380;-80
2023/01/02 14:44:59;;;;;;;9.07;2.05;;;;;;;;;;5035226;28;20503;-80
2023/01/02 14:47:32;;;;;;;8.35;2.67;;;;;;;;;;5010380;28;20049;-80
2023/01/02 14:49:59;;;;;;;9.77;2.20;;;;;;;;;;5030859;28;20030;-80
2023/01/02 14:52:27;;;;;;;9.65;2.03;;;;;;;;;;5042445;28;20029;-80
2023/01/02 14:54:56;;;;;;;9.88;2.13;;;;;;;;;;5035486;28;20032;-80
2023/01/02 14:57:25;;;;;;;9.95;2.50;;;;;;;;;;5026382;28;20105;-80